sensor_id;sensor_type;location;lat;lon;timestamp;P1;durP1;ratioP1;P2;durP2;ratioP2
7051;SDS011;3567;52.444;13.556;2022-09-09T00:09:48;32.97;;;17.75;;
7051;SDS011;3567;52.444;13.556;2022-09-09T00:29:00;32.70;;;18.10;;
7051;SDS011;3567;52.444;13.556;2022-09-09T00:31:35;27.73;;;18.27;;
7051;SDS011;3567;52.444;13.556;2022-09-09T00:34:09;37.28;;;19.48;;
7051;SDS011;3567;52.444;13.556;2022-09-09T00:36:39;25.08;;;16.15;;
7051;SDS011;3567;52.444;13.556;2022-09-09T00:39:05;24.42;;;15.73;;
7051;SDS011;3567;52.444;13.556;2022-09-09T00:44:13;21.88;;;15.20;;
7051;SDS011;3567;52.444;13.556;2022-09-09T00:55:03;25.30;;;15.35;;
7051;SDS011;3567;52.444;13.556;2022-09-09T00:57:35;38.65;;;16.13;;
7051;SDS011;3567;52.444;13.556;2022-09-09T01:00:21;29.48;;;17.23;;
7051;SDS011;3567;52.444;13.556;2022-09-09T01:08:43;21.27;;;14.18;;
7051;SDS011;3567;52.444;13.556;2022-09-09T01:28:46;25.42;;;15.13;;
7051;SDS011;3567;52.444;13.556;2022-09-09T01:31:16;34.53;;;17.35;;
7051;SDS011;3567;52.444;13.556;2022-09-09T01:33:45;26.52;;;16.55;;
7051;SDS011;3567;52.444;13.556;2022-09-09T01:36:29;20.77;;;14.75;;
7051;SDS011;3567;52.444;13.556;2022-09-09T01:39:03;21.25;;;14.50;;
7051;SDS011;3567;52.444;13.556;2022-09-09T01:41:29;26.13;;;15.73;;
7051;SDS011;3567;52.444;13.556;2022-09-09T01:43:54;17.70;;;12.60;;
7051;SDS011;3567;52.444;13.556;2022-09-09T01:46:21;22.90;;;13.93;;
7051;SDS011;3567;52.444;13.556;2022-09-09T01:48:48;22.08;;;14.10;;
7051;SDS011;3567;52.444;13.556;2022-09-09T01:51:16;43.42;;;18.27;;
7051;SDS011;3567;52.444;13.556;2022-09-09T01:53:41;25.13;;;15.10;;
7051;SDS011;3567;52.444;13.556;2022-09-09T01:56:26;22.88;;;13.95;;
7051;SDS011;3567;52.444;13.556;2022-09-09T02:01:57;23.02;;;13.77;;
7051;SDS011;3567;52.444;13.556;2022-09-09T02:07:06;20.92;;;13.98;;
7051;SDS011;3567;52.444;13.556;2022-09-09T02:09:44;16.83;;;12.80;;
7051;SDS011;3567;52.444;13.556;2022-09-09T02:12:14;17.30;;;11.95;;
7051;SDS011;3567;52.444;13.556;2022-09-09T02:14:48;18.65;;;12.82;;
7051;SDS011;3567;52.444;13.556;2022-09-09T02:17:23;17.48;;;12.10;;
7051;SDS011;3567;52.444;13.556;2022-09-09T02:20:03;19.17;;;13.05;;
7051;SDS011;3567;52.444;13.556;2022-09-09T02:22:32;21.15;;;14.23;;
7051;SDS011;3567;52.444;13.556;2022-09-09T02:24:59;25.52;;;15.52;;
7051;SDS011;3567;52.444;13.556;2022-09-09T02:27:25;31.83;;;15.10;;
7051;SDS011;3567;52.444;13.556;2022-09-09T02:29:51;25.05;;;14.07;;
7051;SDS011;3567;52.444;13.556;2022-09-09T02:32:19;21.98;;;13.38;;
7051;SDS011;3567;52.444;13.556;2022-09-09T02:34:48;21.35;;;13.60;;
7051;SDS011;3567;52.444;13.556;2022-09-09T02:37:19;20.77;;;13.52;;
7051;SDS011;3567;52.444;13.556;2022-09-09T02:39:46;18.88;;;13.75;;
7051;SDS011;3567;52.444;13.556;2022-09-09T02:42:12;23.90;;;15.20;;
7051;SDS011;3567;52.444;13.556;2022-09-09T02:44:39;32.88;;;16.25;;
7051;SDS011;3567;52.444;13.556;2022-09-09T02:52:59;22.90;;;14.52;;
7051;SDS011;3567;52.444;13.556;2022-09-09T02:58:22;25.25;;;16.08;;
7051;SDS011;3567;52.444;13.556;2022-09-09T03:00:48;23.92;;;15.18;;
7051;SDS011;3567;52.444;13.556;2022-09-09T03:03:15;26.58;;;15.93;;
7051;SDS011;3567;52.444;13.556;2022-09-09T03:05:43;19.73;;;14.80;;
7051;SDS011;3567;52.444;13.556;2022-09-09T03:08:09;34.15;;;19.00;;
7051;SDS011;3567;52.444;13.556;2022-09-09T03:10:35;28.98;;;18.02;;
7051;SDS011;3567;52.444;13.556;2022-09-09T03:13:02;36.95;;;18.05;;
7051;SDS011;3567;52.444;13.556;2022-09-09T03:15:29;27.70;;;16.60;;
7051;SDS011;3567;52.444;13.556;2022-09-09T03:17:56;31.65;;;18.00;;
7051;SDS011;3567;52.444;13.556;2022-09-09T03:20:22;34.50;;;18.38;;
7051;SDS011;3567;52.444;13.556;2022-09-09T03:22:54;33.63;;;17.48;;
7051;SDS011;3567;52.444;13.556;2022-09-09T03:25:21;23.27;;;16.13;;
7051;SDS011;3567;52.444;13.556;2022-09-09T03:27:51;28.40;;;16.10;;
7051;SDS011;3567;52.444;13.556;2022-09-09T03:30:19;35.03;;;18.70;;
7051;SDS011;3567;52.444;13.556;2022-09-09T03:32:48;52.47;;;20.48;;
7051;SDS011;3567;52.444;13.556;2022-09-09T03:35:13;44.88;;;20.55;;
7051;SDS011;3567;52.444;13.556;2022-09-09T03:37:40;24.02;;;14.18;;
7051;SDS011;3567;52.444;13.556;2022-09-09T03:40:06;32.67;;;16.83;;
7051;SDS011;3567;52.444;13.556;2022-09-09T03:42:34;36.85;;;17.15;;
7051;SDS011;3567;52.444;13.556;2022-09-09T03:45:02;18.15;;;13.75;;
7051;SDS011;3567;52.444;13.556;2022-09-09T03:47:28;26.60;;;15.15;;
7051;SDS011;3567;52.444;13.556;2022-09-09T03:49:55;27.92;;;16.77;;
7051;SDS011;3567;52.444;13.556;2022-09-09T03:52:20;27.33;;;15.93;;
7051;SDS011;3567;52.444;13.556;2022-09-09T03:54:46;21.77;;;14.85;;
7051;SDS011;3567;52.444;13.556;2022-09-09T03:57:12;26.25;;;14.73;;
7051;SDS011;3567;52.444;13.556;2022-09-09T03:59:41;25.55;;;15.68;;
7051;SDS011;3567;52.444;13.556;2022-09-09T04:02:07;29.88;;;15.88;;
7051;SDS011;3567;52.444;13.556;2022-09-09T04:04:32;30.65;;;16.15;;
7051;SDS011;3567;52.444;13.556;2022-09-09T04:06:57;40.35;;;18.38;;
7051;SDS011;3567;52.444;13.556;2022-09-09T04:09:23;44.40;;;17.38;;
7051;SDS011;3567;52.444;13.556;2022-09-09T04:11:48;27.70;;;14.80;;
7051;SDS011;3567;52.444;13.556;2022-09-09T04:14:14;36.40;;;15.15;;
7051;SDS011;3567;52.444;13.556;2022-09-09T04:16:40;26.90;;;13.88;;
7051;SDS011;3567;52.444;13.556;2022-09-09T04:19:09;19.23;;;12.93;;
7051;SDS011;3567;52.444;13.556;2022-09-09T04:21:37;25.10;;;14.02;;
7051;SDS011;3567;52.444;13.556;2022-09-09T04:24:05;17.17;;;12.38;;
7051;SDS011;3567;52.444;13.556;2022-09-09T04:26:31;21.35;;;11.18;;
7051;SDS011;3567;52.444;13.556;2022-09-09T04:28:57;14.32;;;11.52;;
7051;SDS011;3567;52.444;13.556;2022-09-09T04:31:22;17.00;;;11.35;;
7051;SDS011;3567;52.444;13.556;2022-09-09T04:33:51;16.10;;;10.73;;
7051;SDS011;3567;52.444;13.556;2022-09-09T04:36:17;21.02;;;14.30;;
7051;SDS011;3567;52.444;13.556;2022-09-09T04:38:44;20.13;;;13.95;;
7051;SDS011;3567;52.444;13.556;2022-09-09T04:41:10;19.83;;;13.35;;
7051;SDS011;3567;52.444;13.556;2022-09-09T04:43:36;20.17;;;13.77;;
7051;SDS011;3567;52.444;13.556;2022-09-09T04:46:03;21.45;;;14.45;;
7051;SDS011;3567;52.444;13.556;2022-09-09T04:48:29;27.20;;;15.65;;
7051;SDS011;3567;52.444;13.556;2022-09-09T04:50:59;19.45;;;14.55;;
7051;SDS011;3567;52.444;13.556;2022-09-09T04:53:27;19.33;;;13.95;;
7051;SDS011;3567;52.444;13.556;2022-09-09T04:56:00;17.08;;;12.57;;
7051;SDS011;3567;52.444;13.556;2022-09-09T04:58:30;20.77;;;14.02;;
7051;SDS011;3567;52.444;13.556;2022-09-09T05:01:02;25.00;;;15.70;;
7051;SDS011;3567;52.444;13.556;2022-09-09T05:03:29;24.05;;;15.30;;
7051;SDS011;3567;52.444;13.556;2022-09-09T05:05:54;42.70;;;17.80;;
7051;SDS011;3567;52.444;13.556;2022-09-09T05:08:26;16.45;;;12.68;;
7051;SDS011;3567;52.444;13.556;2022-09-09T05:10:52;18.70;;;13.25;;
7051;SDS011;3567;52.444;13.556;2022-09-09T05:13:17;19.83;;;15.60;;
7051;SDS011;3567;52.444;13.556;2022-09-09T05:15:50;26.58;;;17.48;;
7051;SDS011;3567;52.444;13.556;2022-09-09T05:18:16;23.83;;;14.52;;
7051;SDS011;3567;52.444;13.556;2022-09-09T05:20:42;24.45;;;15.68;;
7051;SDS011;3567;52.444;13.556;2022-09-09T05:23:07;27.27;;;16.80;;
7051;SDS011;3567;52.444;13.556;2022-09-09T05:25:33;23.98;;;15.85;;
7051;SDS011;3567;52.444;13.556;2022-09-09T05:27:58;30.30;;;15.77;;
7051;SDS011;3567;52.444;13.556;2022-09-09T05:30:24;20.17;;;15.43;;
7051;SDS011;3567;52.444;13.556;2022-09-09T05:32:51;23.52;;;16.58;;
7051;SDS011;3567;52.444;13.556;2022-09-09T05:35:16;23.20;;;15.38;;
7051;SDS011;3567;52.444;13.556;2022-09-09T05:37:44;26.80;;;16.52;;
7051;SDS011;3567;52.444;13.556;2022-09-09T05:40:10;22.58;;;14.93;;
7051;SDS011;3567;52.444;13.556;2022-09-09T05:42:36;20.88;;;13.77;;
7051;SDS011;3567;52.444;13.556;2022-09-09T05:45:02;32.58;;;23.50;;
7051;SDS011;3567;52.444;13.556;2022-09-09T05:47:27;19.60;;;13.68;;
7051;SDS011;3567;52.444;13.556;2022-09-09T05:49:53;15.50;;;12.93;;
7051;SDS011;3567;52.444;13.556;2022-09-09T05:52:19;23.50;;;14.52;;
7051;SDS011;3567;52.444;13.556;2022-09-09T05:54:44;18.55;;;12.88;;
7051;SDS011;3567;52.444;13.556;2022-09-09T05:57:09;19.73;;;11.77;;
7051;SDS011;3567;52.444;13.556;2022-09-09T05:59:35;15.90;;;11.70;;
7051;SDS011;3567;52.444;13.556;2022-09-09T06:02:00;17.50;;;12.50;;
7051;SDS011;3567;52.444;13.556;2022-09-09T06:04:26;14.50;;;10.90;;
7051;SDS011;3567;52.444;13.556;2022-09-09T06:06:51;11.30;;;9.93;;
7051;SDS011;3567;52.444;13.556;2022-09-09T06:09:16;12.57;;;11.00;;
7051;SDS011;3567;52.444;13.556;2022-09-09T06:11:42;15.80;;;10.93;;
7051;SDS011;3567;52.444;13.556;2022-09-09T06:14:08;15.82;;;10.32;;
7051;SDS011;3567;52.444;13.556;2022-09-09T06:16:34;17.50;;;9.80;;
7051;SDS011;3567;52.444;13.556;2022-09-09T06:19:02;12.63;;;9.98;;
7051;SDS011;3567;52.444;13.556;2022-09-09T06:21:31;18.02;;;11.02;;
7051;SDS011;3567;52.444;13.556;2022-09-09T06:23:59;13.80;;;11.60;;
7051;SDS011;3567;52.444;13.556;2022-09-09T06:26:26;16.15;;;9.77;;
7051;SDS011;3567;52.444;13.556;2022-09-09T06:28:55;11.68;;;9.45;;
7051;SDS011;3567;52.444;13.556;2022-09-09T06:31:23;13.40;;;9.60;;
7051;SDS011;3567;52.444;13.556;2022-09-09T06:33:50;14.95;;;9.02;;
7051;SDS011;3567;52.444;13.556;2022-09-09T06:36:19;9.48;;;8.45;;
7051;SDS011;3567;52.444;13.556;2022-09-09T06:38:45;11.00;;;8.93;;
7051;SDS011;3567;52.444;13.556;2022-09-09T06:41:12;12.05;;;7.03;;
7051;SDS011;3567;52.444;13.556;2022-09-09T06:43:43;12.00;;;8.30;;
7051;SDS011;3567;52.444;13.556;2022-09-09T06:46:10;13.50;;;7.10;;
7051;SDS011;3567;52.444;13.556;2022-09-09T06:48:56;8.20;;;6.75;;
7051;SDS011;3567;52.444;13.556;2022-09-09T06:51:24;10.52;;;7.18;;
7051;SDS011;3567;52.444;13.556;2022-09-09T06:53:55;9.35;;;7.22;;
7051;SDS011;3567;52.444;13.556;2022-09-09T06:56:24;8.05;;;6.32;;
7051;SDS011;3567;52.444;13.556;2022-09-09T06:59:01;7.50;;;6.13;;
7051;SDS011;3567;52.444;13.556;2022-09-09T07:01:32;9.35;;;6.38;;
7051;SDS011;3567;52.444;13.556;2022-09-09T07:03:59;10.07;;;5.70;;
7051;SDS011;3567;52.444;13.556;2022-09-09T07:06:29;10.82;;;6.35;;
7051;SDS011;3567;52.444;13.556;2022-09-09T07:09:00;8.40;;;6.05;;
7051;SDS011;3567;52.444;13.556;2022-09-09T07:11:30;6.20;;;5.60;;
7051;SDS011;3567;52.444;13.556;2022-09-09T07:13:58;5.07;;;4.45;;
7051;SDS011;3567;52.444;13.556;2022-09-09T07:16:24;10.55;;;6.38;;
7051;SDS011;3567;52.444;13.556;2022-09-09T07:18:53;6.40;;;5.25;;
7051;SDS011;3567;52.444;13.556;2022-09-09T07:21:26;8.75;;;4.68;;
7051;SDS011;3567;52.444;13.556;2022-09-09T07:23:52;8.02;;;4.53;;
7051;SDS011;3567;52.444;13.556;2022-09-09T07:26:20;6.38;;;4.78;;
7051;SDS011;3567;52.444;13.556;2022-09-09T07:28:48;5.15;;;3.70;;
7051;SDS011;3567;52.444;13.556;2022-09-09T07:31:16;9.70;;;4.60;;
7051;SDS011;3567;52.444;13.556;2022-09-09T07:33:47;8.18;;;5.20;;
7051;SDS011;3567;52.444;13.556;2022-09-09T07:36:17;4.60;;;3.20;;
7051;SDS011;3567;52.444;13.556;2022-09-09T07:38:47;10.48;;;3.45;;
7051;SDS011;3567;52.444;13.556;2022-09-09T07:41:17;4.78;;;3.17;;
7051;SDS011;3567;52.444;13.556;2022-09-09T07:43:46;5.40;;;2.55;;
7051;SDS011;3567;52.444;13.556;2022-09-09T07:46:13;5.43;;;3.20;;
7051;SDS011;3567;52.444;13.556;2022-09-09T07:48:44;6.55;;;3.40;;
7051;SDS011;3567;52.444;13.556;2022-09-09T07:51:11;5.43;;;2.70;;
7051;SDS011;3567;52.444;13.556;2022-09-09T07:53:42;6.22;;;3.05;;
7051;SDS011;3567;52.444;13.556;2022-09-09T07:56:09;4.95;;;2.42;;
7051;SDS011;3567;52.444;13.556;2022-09-09T07:58:36;6.57;;;2.28;;
7051;SDS011;3567;52.444;13.556;2022-09-09T08:01:22;10.57;;;3.05;;
7051;SDS011;3567;52.444;13.556;2022-09-09T08:03:58;4.75;;;2.33;;
7051;SDS011;3567;52.444;13.556;2022-09-09T08:06:29;3.10;;;2.05;;
7051;SDS011;3567;52.444;13.556;2022-09-09T08:08:58;4.75;;;1.77;;
7051;SDS011;3567;52.444;13.556;2022-09-09T08:11:24;3.00;;;1.63;;
7051;SDS011;3567;52.444;13.556;2022-09-09T08:13:51;4.72;;;1.95;;
7051;SDS011;3567;52.444;13.556;2022-09-09T08:16:21;5.55;;;2.00;;
7051;SDS011;3567;52.444;13.556;2022-09-09T08:18:49;4.28;;;1.92;;
7051;SDS011;3567;52.444;13.556;2022-09-09T08:21:20;4.05;;;2.13;;
7051;SDS011;3567;52.444;13.556;2022-09-09T08:23:47;5.70;;;1.90;;
7051;SDS011;3567;52.444;13.556;2022-09-09T08:26:16;3.50;;;1.50;;
7051;SDS011;3567;52.444;13.556;2022-09-09T08:28:49;5.07;;;1.42;;
7051;SDS011;3567;52.444;13.556;2022-09-09T08:31:17;4.72;;;1.65;;
7051;SDS011;3567;52.444;13.556;2022-09-09T08:33:54;5.60;;;2.13;;
7051;SDS011;3567;52.444;13.556;2022-09-09T08:36:21;2.88;;;1.27;;
7051;SDS011;3567;52.444;13.556;2022-09-09T08:38:51;1.80;;;1.10;;
7051;SDS011;3567;52.444;13.556;2022-09-09T08:52:37;3.70;;;1.30;;
7051;SDS011;3567;52.444;13.556;2022-09-09T08:57:44;4.28;;;1.30;;
7051;SDS011;3567;52.444;13.556;2022-09-09T09:00:11;2.88;;;1.40;;
7051;SDS011;3567;52.444;13.556;2022-09-09T09:08:33;5.63;;;1.40;;
7051;SDS011;3567;52.444;13.556;2022-09-09T09:10:51;3.78;;;1.42;;
7051;SDS011;3567;52.444;13.556;2022-09-09T09:13:40;3.60;;;1.50;;
7051;SDS011;3567;52.444;13.556;2022-09-09T09:16:32;3.70;;;1.45;;
7051;SDS011;3567;52.444;13.556;2022-09-09T09:19:03;3.03;;;1.20;;
7051;SDS011;3567;52.444;13.556;2022-09-09T09:21:43;3.15;;;1.55;;
7051;SDS011;3567;52.444;13.556;2022-09-09T09:24:19;3.40;;;1.30;;
7051;SDS011;3567;52.444;13.556;2022-09-09T09:26:49;2.50;;;1.42;;
7051;SDS011;3567;52.444;13.556;2022-09-09T09:29:18;2.08;;;1.08;;
7051;SDS011;3567;52.444;13.556;2022-09-09T09:31:53;5.72;;;1.40;;
7051;SDS011;3567;52.444;13.556;2022-09-09T09:34:22;6.18;;;1.60;;
7051;SDS011;3567;52.444;13.556;2022-09-09T09:36:53;3.17;;;0.95;;
7051;SDS011;3567;52.444;13.556;2022-09-09T09:39:24;3.20;;;0.73;;
7051;SDS011;3567;52.444;13.556;2022-09-09T09:41:54;4.93;;;1.00;;
7051;SDS011;3567;52.444;13.556;2022-09-09T09:44:23;2.67;;;1.13;;
7051;SDS011;3567;52.444;13.556;2022-09-09T09:46:51;1.77;;;0.65;;
7051;SDS011;3567;52.444;13.556;2022-09-09T09:49:17;1.80;;;0.70;;
7051;SDS011;3567;52.444;13.556;2022-09-09T09:51:43;3.05;;;1.10;;
7051;SDS011;3567;52.444;13.556;2022-09-09T09:54:17;1.67;;;0.77;;
7051;SDS011;3567;52.444;13.556;2022-09-09T09:56:48;4.35;;;0.60;;
7051;SDS011;3567;52.444;13.556;2022-09-09T09:59:21;0.70;;;0.63;;
7051;SDS011;3567;52.444;13.556;2022-09-09T10:01:52;1.58;;;0.75;;
7051;SDS011;3567;52.444;13.556;2022-09-09T10:04:19;2.08;;;0.70;;
7051;SDS011;3567;52.444;13.556;2022-09-09T10:06:48;3.20;;;0.90;;
7051;SDS011;3567;52.444;13.556;2022-09-09T10:09:21;2.33;;;0.90;;
7051;SDS011;3567;52.444;13.556;2022-09-09T10:37:41;1.95;;;0.60;;
7051;SDS011;3567;52.444;13.556;2022-09-09T10:40:23;1.58;;;0.60;;
7051;SDS011;3567;52.444;13.556;2022-09-09T10:43:02;1.45;;;0.60;;
7051;SDS011;3567;52.444;13.556;2022-09-09T10:48:19;2.88;;;1.00;;
7051;SDS011;3567;52.444;13.556;2022-09-09T10:56:09;1.73;;;0.68;;
7051;SDS011;3567;52.444;13.556;2022-09-09T11:01:16;1.80;;;0.70;;
7051;SDS011;3567;52.444;13.556;2022-09-09T11:03:55;3.70;;;0.65;;
7051;SDS011;3567;52.444;13.556;2022-09-09T11:06:41;4.53;;;0.88;;
7051;SDS011;3567;52.444;13.556;2022-09-09T11:09:16;2.67;;;0.70;;
7051;SDS011;3567;52.444;13.556;2022-09-09T11:11:53;2.97;;;0.60;;
7051;SDS011;3567;52.444;13.556;2022-09-09T11:16:55;1.13;;;0.50;;
7051;SDS011;3567;52.444;13.556;2022-09-09T11:19:34;3.53;;;0.70;;
7051;SDS011;3567;52.444;13.556;2022-09-09T11:24:33;4.00;;;0.73;;
7051;SDS011;3567;52.444;13.556;2022-09-09T11:27:09;5.13;;;0.85;;
7051;SDS011;3567;52.444;13.556;2022-09-09T11:40:56;2.38;;;1.05;;
7051;SDS011;3567;52.444;13.556;2022-09-09T11:43:28;1.02;;;0.43;;
7051;SDS011;3567;52.444;13.556;2022-09-09T11:45:57;1.42;;;0.50;;
7051;SDS011;3567;52.444;13.556;2022-09-09T11:48:27;1.58;;;1.15;;
7051;SDS011;3567;52.444;13.556;2022-09-09T11:51:00;0.98;;;0.60;;
7051;SDS011;3567;52.444;13.556;2022-09-09T11:53:26;1.50;;;0.80;;
7051;SDS011;3567;52.444;13.556;2022-09-09T11:56:02;1.75;;;0.40;;
7051;SDS011;3567;52.444;13.556;2022-09-09T11:58:43;1.65;;;0.60;;
7051;SDS011;3567;52.444;13.556;2022-09-09T12:04:11;1.08;;;0.77;;
7051;SDS011;3567;52.444;13.556;2022-09-09T12:06:44;3.22;;;0.68;;
7051;SDS011;3567;52.444;13.556;2022-09-09T12:11:51;0.70;;;0.30;;
7051;SDS011;3567;52.444;13.556;2022-09-09T12:14:20;1.70;;;0.52;;
7051;SDS011;3567;52.444;13.556;2022-09-09T12:16:47;4.15;;;0.70;;
7051;SDS011;3567;52.444;13.556;2022-09-09T12:19:14;3.53;;;2.78;;
7051;SDS011;3567;52.444;13.556;2022-09-09T12:27:33;1.50;;;0.45;;
7051;SDS011;3567;52.444;13.556;2022-09-09T12:30:09;1.30;;;0.45;;
7051;SDS011;3567;52.444;13.556;2022-09-09T12:32:37;1.20;;;0.45;;
7051;SDS011;3567;52.444;13.556;2022-09-09T12:35:04;3.20;;;0.50;;
7051;SDS011;3567;52.444;13.556;2022-09-09T12:37:52;4.03;;;2.45;;
7051;SDS011;3567;52.444;13.556;2022-09-09T12:40:23;3.35;;;1.50;;
7051;SDS011;3567;52.444;13.556;2022-09-09T12:42:51;2.28;;;0.60;;
7051;SDS011;3567;52.444;13.556;2022-09-09T12:45:20;1.85;;;0.65;;
7051;SDS011;3567;52.444;13.556;2022-09-09T12:47:59;1.35;;;0.43;;
7051;SDS011;3567;52.444;13.556;2022-09-09T12:50:32;4.15;;;0.30;;
7051;SDS011;3567;52.444;13.556;2022-09-09T12:53:13;1.05;;;0.40;;
7051;SDS011;3567;52.444;13.556;2022-09-09T12:55:54;1.90;;;0.63;;
7051;SDS011;3567;52.444;13.556;2022-09-09T12:58:20;2.05;;;0.40;;
7051;SDS011;3567;52.444;13.556;2022-09-09T13:00:53;0.57;;;0.35;;
7051;SDS011;3567;52.444;13.556;2022-09-09T13:03:22;0.63;;;0.40;;
7051;SDS011;3567;52.444;13.556;2022-09-09T13:05:51;4.72;;;0.63;;
7051;SDS011;3567;52.444;13.556;2022-09-09T13:08:18;1.05;;;0.57;;
7051;SDS011;3567;52.444;13.556;2022-09-09T13:10:51;1.65;;;0.50;;
7051;SDS011;3567;52.444;13.556;2022-09-09T13:13:30;1.00;;;0.40;;
7051;SDS011;3567;52.444;13.556;2022-09-09T13:16:01;2.03;;;0.45;;
7051;SDS011;3567;52.444;13.556;2022-09-09T13:18:30;1.30;;;0.43;;
7051;SDS011;3567;52.444;13.556;2022-09-09T13:20:59;1.05;;;0.40;;
7051;SDS011;3567;52.444;13.556;2022-09-09T13:23:29;1.50;;;0.40;;
7051;SDS011;3567;52.444;13.556;2022-09-09T13:26:01;1.27;;;0.50;;
7051;SDS011;3567;52.444;13.556;2022-09-09T13:28:30;2.08;;;0.38;;
7051;SDS011;3567;52.444;13.556;2022-09-09T13:30:56;1.95;;;0.70;;
7051;SDS011;3567;52.444;13.556;2022-09-09T13:33:29;2.58;;;0.50;;
7051;SDS011;3567;52.444;13.556;2022-09-09T13:35:57;0.88;;;0.50;;
7051;SDS011;3567;52.444;13.556;2022-09-09T13:38:25;3.60;;;0.57;;
7051;SDS011;3567;52.444;13.556;2022-09-09T13:40:54;0.45;;;0.40;;
7051;SDS011;3567;52.444;13.556;2022-09-09T13:43:30;0.57;;;0.40;;
7051;SDS011;3567;52.444;13.556;2022-09-09T13:46:03;1.67;;;0.70;;
7051;SDS011;3567;52.444;13.556;2022-09-09T13:48:31;1.48;;;0.50;;
7051;SDS011;3567;52.444;13.556;2022-09-09T13:51:03;1.40;;;0.50;;
7051;SDS011;3567;52.444;13.556;2022-09-09T13:53:32;1.85;;;0.80;;
7051;SDS011;3567;52.444;13.556;2022-09-09T13:55:58;1.95;;;0.50;;
7051;SDS011;3567;52.444;13.556;2022-09-09T13:58:24;0.88;;;0.40;;
7051;SDS011;3567;52.444;13.556;2022-09-09T14:00:51;1.02;;;0.40;;
7051;SDS011;3567;52.444;13.556;2022-09-09T14:03:18;1.40;;;0.50;;
7051;SDS011;3567;52.444;13.556;2022-09-09T14:05:44;1.13;;;0.60;;
7051;SDS011;3567;52.444;13.556;2022-09-09T14:08:12;3.40;;;0.70;;
7051;SDS011;3567;52.444;13.556;2022-09-09T14:10:45;1.65;;;0.50;;
7051;SDS011;3567;52.444;13.556;2022-09-09T14:13:11;2.50;;;0.68;;
7051;SDS011;3567;52.444;13.556;2022-09-09T14:15:37;4.07;;;0.98;;
7051;SDS011;3567;52.444;13.556;2022-09-09T14:18:02;2.88;;;0.60;;
7051;SDS011;3567;52.444;13.556;2022-09-09T14:20:28;1.67;;;0.50;;
7051;SDS011;3567;52.444;13.556;2022-09-09T14:22:53;2.08;;;0.80;;
7051;SDS011;3567;52.444;13.556;2022-09-09T14:25:18;1.67;;;0.50;;
7051;SDS011;3567;52.444;13.556;2022-09-09T14:27:44;1.15;;;0.68;;
7051;SDS011;3567;52.444;13.556;2022-09-09T14:30:11;2.10;;;0.80;;
7051;SDS011;3567;52.444;13.556;2022-09-09T14:32:37;3.10;;;0.65;;
7051;SDS011;3567;52.444;13.556;2022-09-09T14:35:02;1.42;;;0.63;;
7051;SDS011;3567;52.444;13.556;2022-09-09T14:37:28;1.58;;;0.43;;
7051;SDS011;3567;52.444;13.556;2022-09-09T14:39:55;1.15;;;0.40;;
7051;SDS011;3567;52.444;13.556;2022-09-09T14:42:21;1.85;;;0.65;;
7051;SDS011;3567;52.444;13.556;2022-09-09T14:44:47;1.15;;;0.45;;
7051;SDS011;3567;52.444;13.556;2022-09-09T14:47:12;1.17;;;0.60;;
7051;SDS011;3567;52.444;13.556;2022-09-09T14:49:38;2.65;;;0.57;;
7051;SDS011;3567;52.444;13.556;2022-09-09T14:52:04;2.78;;;0.68;;
7051;SDS011;3567;52.444;13.556;2022-09-09T14:54:30;3.85;;;0.70;;
7051;SDS011;3567;52.444;13.556;2022-09-09T14:56:58;2.42;;;0.88;;
7051;SDS011;3567;52.444;13.556;2022-09-09T14:59:24;1.60;;;0.70;;
7051;SDS011;3567;52.444;13.556;2022-09-09T15:01:50;1.15;;;0.60;;
7051;SDS011;3567;52.444;13.556;2022-09-09T15:04:15;2.15;;;0.50;;
7051;SDS011;3567;52.444;13.556;2022-09-09T15:06:41;2.33;;;0.50;;
7051;SDS011;3567;52.444;13.556;2022-09-09T15:09:09;3.75;;;0.85;;
7051;SDS011;3567;52.444;13.556;2022-09-09T15:11:35;0.65;;;0.60;;
7051;SDS011;3567;52.444;13.556;2022-09-09T15:14:03;0.88;;;0.60;;
7051;SDS011;3567;52.444;13.556;2022-09-09T15:16:30;3.08;;;0.73;;
7051;SDS011;3567;52.444;13.556;2022-09-09T15:18:57;4.07;;;1.00;;
7051;SDS011;3567;52.444;13.556;2022-09-09T15:21:28;3.05;;;0.90;;
7051;SDS011;3567;52.444;13.556;2022-09-09T15:23:56;3.25;;;0.68;;
7051;SDS011;3567;52.444;13.556;2022-09-09T15:26:22;0.98;;;0.50;;
7051;SDS011;3567;52.444;13.556;2022-09-09T15:28:48;0.68;;;0.63;;
7051;SDS011;3567;52.444;13.556;2022-09-09T15:31:19;2.42;;;0.45;;
7051;SDS011;3567;52.444;13.556;2022-09-09T15:33:49;2.35;;;0.60;;
7051;SDS011;3567;52.444;13.556;2022-09-09T15:38:45;5.22;;;0.93;;
7051;SDS011;3567;52.444;13.556;2022-09-09T15:41:11;0.93;;;0.38;;
7051;SDS011;3567;52.444;13.556;2022-09-09T15:43:38;1.67;;;0.52;;
7051;SDS011;3567;52.444;13.556;2022-09-09T15:46:23;0.98;;;0.38;;
7051;SDS011;3567;52.444;13.556;2022-09-09T15:48:57;1.20;;;0.50;;
7051;SDS011;3567;52.444;13.556;2022-09-09T15:51:28;1.98;;;0.73;;
7051;SDS011;3567;52.444;13.556;2022-09-09T15:53:54;1.30;;;0.40;;
7051;SDS011;3567;52.444;13.556;2022-09-09T15:56:20;2.42;;;0.70;;
7051;SDS011;3567;52.444;13.556;2022-09-09T15:58:46;3.05;;;0.68;;
7051;SDS011;3567;52.444;13.556;2022-09-09T16:01:11;2.55;;;0.68;;
7051;SDS011;3567;52.444;13.556;2022-09-09T16:03:41;1.50;;;0.50;;
7051;SDS011;3567;52.444;13.556;2022-09-09T16:06:08;2.65;;;0.80;;
7051;SDS011;3567;52.444;13.556;2022-09-09T16:08:35;0.70;;;0.47;;
7051;SDS011;3567;52.444;13.556;2022-09-09T16:11:08;2.22;;;0.57;;
7051;SDS011;3567;52.444;13.556;2022-09-09T16:13:43;0.90;;;0.47;;
7051;SDS011;3567;52.444;13.556;2022-09-09T16:16:09;2.15;;;0.73;;
7051;SDS011;3567;52.444;13.556;2022-09-09T16:18:37;1.73;;;0.68;;
7051;SDS011;3567;52.444;13.556;2022-09-09T16:21:04;3.05;;;0.65;;
7051;SDS011;3567;52.444;13.556;2022-09-09T16:23:31;2.20;;;1.10;;
7051;SDS011;3567;52.444;13.556;2022-09-09T16:25:57;5.80;;;0.80;;
7051;SDS011;3567;52.444;13.556;2022-09-09T16:28:23;2.50;;;0.75;;
7051;SDS011;3567;52.444;13.556;2022-09-09T16:30:48;2.95;;;0.80;;
7051;SDS011;3567;52.444;13.556;2022-09-09T16:33:14;1.42;;;0.73;;
7051;SDS011;3567;52.444;13.556;2022-09-09T16:35:40;1.90;;;0.98;;
7051;SDS011;3567;52.444;13.556;2022-09-09T16:38:06;1.38;;;0.75;;
7051;SDS011;3567;52.444;13.556;2022-09-09T16:40:33;5.88;;;0.88;;
7051;SDS011;3567;52.444;13.556;2022-09-09T16:43:02;3.05;;;0.65;;
7051;SDS011;3567;52.444;13.556;2022-09-09T16:45:33;2.72;;;1.05;;
7051;SDS011;3567;52.444;13.556;2022-09-09T16:48:01;1.65;;;0.60;;
7051;SDS011;3567;52.444;13.556;2022-09-09T16:50:26;3.28;;;0.60;;
7051;SDS011;3567;52.444;13.556;2022-09-09T16:52:52;2.35;;;0.85;;
7051;SDS011;3567;52.444;13.556;2022-09-09T16:55:18;4.35;;;0.70;;
7051;SDS011;3567;52.444;13.556;2022-09-09T16:57:45;2.47;;;0.80;;
7051;SDS011;3567;52.444;13.556;2022-09-09T17:00:13;0.90;;;0.50;;
7051;SDS011;3567;52.444;13.556;2022-09-09T17:02:40;3.20;;;0.70;;
7051;SDS011;3567;52.444;13.556;2022-09-09T17:05:05;1.48;;;0.52;;
7051;SDS011;3567;52.444;13.556;2022-09-09T17:07:30;0.82;;;0.50;;
7051;SDS011;3567;52.444;13.556;2022-09-09T17:09:57;2.08;;;0.40;;
7051;SDS011;3567;52.444;13.556;2022-09-09T17:12:22;3.97;;;0.63;;
7051;SDS011;3567;52.444;13.556;2022-09-09T17:14:48;1.70;;;0.70;;
7051;SDS011;3567;52.444;13.556;2022-09-09T17:17:13;2.42;;;0.80;;
7051;SDS011;3567;52.444;13.556;2022-09-09T17:19:38;1.98;;;0.77;;
7051;SDS011;3567;52.444;13.556;2022-09-09T17:22:04;1.40;;;0.50;;
7051;SDS011;3567;52.444;13.556;2022-09-09T17:24:29;2.50;;;0.40;;
7051;SDS011;3567;52.444;13.556;2022-09-09T17:26:54;0.55;;;0.52;;
7051;SDS011;3567;52.444;13.556;2022-09-09T17:29:20;3.30;;;0.40;;
7051;SDS011;3567;52.444;13.556;2022-09-09T17:31:46;1.80;;;0.60;;
7051;SDS011;3567;52.444;13.556;2022-09-09T17:34:11;1.10;;;0.57;;
7051;SDS011;3567;52.444;13.556;2022-09-09T17:36:37;0.63;;;0.50;;
7051;SDS011;3567;52.444;13.556;2022-09-09T17:39:03;1.85;;;0.68;;
7051;SDS011;3567;52.444;13.556;2022-09-09T17:41:31;3.20;;;0.50;;